Weather Models
Both GFS & NAM
00z 06z 12z 18z
24hr Precip
00z 06z 12z 18z
36hr Simulated radar
00z 06z 12z 18z
SKEWT Soundings
00z 12z
Current Conditions (Updated 9:10am on 9/21/20)
Temperature
 56°
3.12
57°  
51°  
0
10
20
30
40
50
60
70
80
90
100
Dew Point
35°
35°  
28°  
-20
-10
0
10
20
30
40
50
60
70
80
Wind Chill
55°
57°  
47°  
-20
-10
0
10
20
30
40
50
60
70
80
Wind Chill
Humidity
44%
48% 
34% 
0
10
20
30
40
50
60
70
80
90
100
Barometer
30.61
   Steady
30.61  
30.55  
28.00
28.30
28.60
28.90
29.20
29.50
29.80
30.10
30.40
30.70
31.00
Temperature
Dew Point
Humidity
Pressure
Wind
6mph
NNE
Daily Rain
.00
.05
.10
.15
.20
.25
.30
.35
.40
.45
.50
Rain Today
 0.00" 
Month Rain
0.00
0.20
0.40
0.60
0.80
1.00
1.20
1.40
1.60
1.80
2.00
Month Rain
 0.97" 
Year Rain
0.00
5.00
10.00
15.00
20.00
25.00
30.00
35.00
40.00
45.00
50.00
Year Rain
 32.03" 
Sun & Moon Data
Sunrise 6:49am
Sunset 7:00pm
Moonrise 11:42am
Moonset 9:55pm
Moon % 17%
Other Rain Data
Past Hour 0.00 Past 24 Hours 0.00
Past 3 Hours 0.00 Past 7 Days 0.00
Past 6 Hours 0.00
Cloud Height
5399


Current Front Map
Current Satellite map
7 Day Forecast
NWS Forecast for Philadelphia PA
National Weather Service Forecast for: Philadelphia PA
Issued by: National Weather Service Philadelphia, PA
Updated: 7:08 am EDT Sep 21, 2020

Philadelphia
 
Today

Today: Sunny, with a high near 65. Northeast wind 5 to 10 mph, with gusts as high as 20 mph.
Sunny
Tonight

Tonight: Clear, with a low around 45. North wind around 5 mph.
Clear
Tuesday

Tuesday: Sunny, with a high near 71. North wind 5 to 10 mph.
Sunny
Tuesday
Night
Tuesday Night: Clear, with a low around 54. Northwest wind around 5 mph.
Clear
Wednesday

Wednesday: Sunny, with a high near 78. West wind 5 to 10 mph.
Sunny
Wednesday
Night
Wednesday Night: Mostly clear, with a low around 58.
Mostly Clear
Thursday

Thursday: Mostly sunny, with a high near 79.
Mostly Sunny
Thursday
Night
Thursday Night: Partly cloudy, with a low around 60.
Partly Cloudy
Friday

Friday: Mostly sunny, with a high near 79.
Mostly Sunny
Hi 65 °F Lo 45 °F Hi 71 °F Lo 54 °F Hi 78 °F Lo 58 °F Hi 79 °F Lo 60 °F Hi 79 °F

 

Today
 
Sunny, with a high near 65. Northeast wind 5 to 10 mph, with gusts as high as 20 mph.
Tonight
 
Clear, with a low around 45. North wind around 5 mph.
Tuesday
 
Sunny, with a high near 71. North wind 5 to 10 mph.
Tuesday Night
 
Clear, with a low around 54. Northwest wind around 5 mph.
Wednesday
 
Sunny, with a high near 78. West wind 5 to 10 mph.
Wednesday Night
 
Mostly clear, with a low around 58.
Thursday
 
Mostly sunny, with a high near 79.
Thursday Night
 
Partly cloudy, with a low around 60.
Friday
 
Mostly sunny, with a high near 79.
Friday Night
 
Partly cloudy, with a low around 60.
Saturday
 
Mostly sunny, with a high near 77.
Saturday Night
 
Partly cloudy, with a low around 60.
Sunday
 
Partly sunny, with a high near 76.

 

Forecast from NOAA-NWS for Philadelphia PA.

Area Weather Current Conditions
Nearby METAR Reports

KPHL - Philadelphia, Pennsylvania
Updated: Mon, 21-Sep-2020 8:54am EDT
Few Clouds
Few Clouds
 Wind from N
Wind: N 10 mph , 17 km/h
Temperature: 54°F , 12°C
Dew Point: 37°F , 3°C
Humidity: 54%
Barometer: 30.56 inHg , 1034.9 hPa
Clouds: Few Clouds
Visibility: 10 miles , 16 km
Cloud details: Few Clouds 5000 ft
2020/09/21 12:54 KPHL 211254Z 01009KT 10SM FEW050 12/03 A3056 RMK AO2 SLP349 T01220033 $
KMPO - Mt. Pocono, Pennsylvania
Updated: Mon, 21-Sep-2020 8:53am EDT
Clear
Clear
 Wind from ENE
Wind: ENE 6 mph , 9 km/h
Temperature: 48°F , 9°C
Wind Chill: 45°F , 7°C
Dew Point: 32°F , 0°C
Humidity: 54%
Barometer: 30.57 inHg , 1035.2 hPa
Clouds: Clear
Visibility: 10 miles , 16 km
2020/09/21 12:53 KMPO 211253Z AUTO 06005KT 10SM CLR 09/00 A3057 RMK AO2 SLP366 T00890000 $
 
KACY - Atlantic City, New Jersey
Updated: Mon, 21-Sep-2020 8:54am EDT
Partly Cloudy
Partly Cloudy
 Wind from N
Wind: N 9 mph , 15 km/h
Temperature: 52°F , 11°C
Dew Point: 43°F , 6°C
Humidity: 72%
Barometer: 30.52 inHg , 1033.5 hPa
Clouds: Partly Cloudy
Visibility: 10 miles , 16 km
Cloud details: Partly Cloudy 4700 ft
2020/09/21 12:54 KACY 211254Z 01008KT 10SM SCT047 11/06 A3052 RMK AO2 SLP334 T01060056
KMIV - Millville, New Jersey
Updated: Mon, 21-Sep-2020 8:54am EDT
Clear
Clear
 Wind from NNE
Wind: NNE 14 mph , 22 km/h
Temperature: 54°F , 12°C
Dew Point: 43°F , 6°C
Humidity: 67%
Barometer: 30.53 inHg , 1033.9 hPa
Clouds: Clear
Visibility: 10 miles , 16 km
2020/09/21 12:54 KMIV 211254Z AUTO 02012KT 10SM CLR 12/06 A3053 RMK AO2 SLP337 T01220056
 
KWWD - Wildwood, New Jersey
Updated: Mon, 21-Sep-2020 8:56am EDT
Partly Cloudy
Partly Cloudy
 Wind from N
Wind: N 10 mph , 17 km/h
Temperature: 54°F , 12°C
Dew Point: 39°F , 4°C
Humidity: 58%
Barometer: 30.51 inHg , 1033.2 hPa
Clouds: Partly Cloudy
Visibility: 10 miles , 16 km
Cloud details: Partly Cloudy 4900 ft
2020/09/21 12:56 KWWD 211256Z AUTO 01009KT 10SM SCT049 12/04 A3051 RMK AO2 SLP335 T01170044
KDOV - Dover Afb, Delaware
Updated: Mon, 21-Sep-2020 8:39am EDT
Clear
Clear
 Wind from NNE
Wind: NNE 16 mph , 26 km/h, Gust: 24 mph , 39 km/h
Temperature: 55°F , 13°C
Dew Point: 43°F , 6°C
Humidity: 63%
Barometer: 30.52 inHg , 1033.5 hPa
Clouds: Clear
Visibility: 10 miles , 16 km
2020/09/21 12:39 KDOV 211239Z 02014G21KT 10SM CLR 13/06 A3052 RMK AO2A SLP338 TSNO $
Severe Weather Map
https://www.wpc.ncep.noaa.gov/sfc/radsfcus_exp_new.gif